logo
Search for airport 
image banner adimage banner adimage banner ad
image banner ad

HKGH - Game Ranching Ltd

Located in , Kenya

ICAO - , IATA -

Data provided by Airmate  

General information

Coordinates: S1°30'9" E37°12'3"
Elevation is 5639 feet MSL.
 
View others Airports in Eastern Province

Operational data

Special qualification required
Current time UTC:
Current local time:
Weather at : HKJK - Nairobi Jomo Kenyatta Intl ( 37 km )
TAF: TAF HKJK 222300Z 2300/2406 22005KT 9999 -RA SCT018 BKN080 BECMG 2303/ 2307 NSW SCT023 BECMG 2308/2311 14010KT FEW025CB SCT026 TEMPO 2312/23 16 -TSRA FEW020CB SCT021 BECMG 2321/2324 22005KT -RA SCT018 BKN080 BE CMG 2403/2407 NSW SCT023
View NOTAMs / SUP AIP / TFR affecting this airport [VIEW]
Communications frequencies: [VIEW]

Runways:

RWY identifierQFULength (ft)Width (ft)SurfaceLDA (ft)
0900UNK
2700UNK

Airport contact information

Address: Kenya

Satellite view of HKGH